Terminal Aerodrome Forecast
Issued by NWS Lake Charles, LA

Home | Current Version | Previous Version | Text Only | Print | Product List | Glossary On
Versions: 1 2 3 4 5 6 7 8 9 10 11 12 13 14 15 16 17 18 19
452
FTUS44 KLCH 181017 AAA
TAFARA
TAF AMD
KARA 181017Z 1810/1906 00000KT 2SM -RA BR SCT007 OVC012
      TEMPO 1810/1813 1/2SM FG BKN003
     FM181600 VRB05KT P6SM VCTS BKN008 OVC017CB
     FM182300 07003KT 4SM BR OVC003=

USA.gov is the U.S. government's official web portal to all federal, state and local government web resources and services.